Darwin, Australia
Current Conditions -  °F | °C
As of 6:00 PM on Monday 24 Nov 2014 (Local Time) from YPDN Reporting Station
Rain Showers Rain Showers  
Wind Chill: 88°   Ceiling: 6500
Heat Index: 96°   Visibility: 6mi
Dew Point: 73°   Wind: 15mph
Humidity: 62%   Direction: 290°WNW
Pressure: 29.74"   Gusts: NA
Location:  12.46°S, 130.84°E
Report Text: YPDN 240900Z 29013KT 9999 VCSH FEW025 BKN065 BKN090 31/23 Q1007 TEMPO 0930/1130 13020G40KT 1000 TSRA BKN010 SCT020CB
Loading
Personal Weather Stations






























Interactive Weather Map New forecast layout! Learn more

10-Day Weather Forecast

Advertisements
Track Severe Weather on mobile